IAW907 ORBI-ORER
Flight info
| Callsign | IAW907 |
|---|---|
| Flight time | 0h 31m |
| Altitude | 22000 |
| Route | TAGRU DCT OTALO |
| Aircraft | B737/M-SDE2E3FGHIRWXY/LB1 |
Departure
| Time | 2026-05-05 06:51 |
|---|---|
| Airport | Baghdad International Airport / New Al Muthana Air Base (ORBI) |
Arrival
| Time | 2026-05-05 07:22 |
|---|---|
| Airport | Erbil International Airport (ORER) |
| Time | Latitude | Longitude | Altitude | Speed | Heading |
|---|---|---|---|---|---|
| 2026-05-05 06:39 | 33.26617 | 44.22546 | 138 ft | 0 kts | 89° |
| 2026-05-05 06:40 | 33.26617 | 44.22559 | 138 ft | 3 kts | 89° |
| 2026-05-05 06:40 | 33.26617 | 44.22588 | 138 ft | 5 kts | 90° |
| 2026-05-05 06:40 | 33.26623 | 44.22632 | 138 ft | 6 kts | 57° |
| 2026-05-05 06:40 | 33.26663 | 44.22648 | 138 ft | 7 kts | 0° |
| 2026-05-05 06:41 | 33.26724 | 44.22648 | 138 ft | 10 kts | 360° |
| 2026-05-05 06:41 | 33.26797 | 44.22648 | 138 ft | 11 kts | 360° |
| 2026-05-05 06:41 | 33.26870 | 44.22648 | 138 ft | 10 kts | 0° |
| 2026-05-05 06:41 | 33.26941 | 44.22651 | 138 ft | 10 kts | 12° |
| 2026-05-05 06:42 | 33.26987 | 44.22707 | 138 ft | 10 kts | 60° |
| 2026-05-05 06:42 | 33.27029 | 44.22791 | 138 ft | 13 kts | 59° |
| 2026-05-05 06:42 | 33.27073 | 44.22881 | 138 ft | 12 kts | 59° |
| 2026-05-05 06:42 | 33.27115 | 44.22969 | 138 ft | 12 kts | 60° |
| 2026-05-05 06:43 | 33.27156 | 44.23055 | 138 ft | 12 kts | 60° |
| 2026-05-05 06:43 | 33.27200 | 44.23145 | 138 ft | 14 kts | 60° |
| 2026-05-05 06:43 | 33.27253 | 44.23253 | 138 ft | 16 kts | 60° |
| 2026-05-05 06:43 | 33.27307 | 44.23366 | 138 ft | 16 kts | 60° |
| 2026-05-05 06:44 | 33.27358 | 44.23471 | 138 ft | 12 kts | 60° |
| 2026-05-05 06:44 | 33.27363 | 44.23549 | 138 ft | 10 kts | 126° |
| 2026-05-05 06:44 | 33.27295 | 44.23604 | 138 ft | 14 kts | 150° |
| 2026-05-05 06:44 | 33.27202 | 44.23667 | 139 ft | 17 kts | 150° |
| 2026-05-05 06:45 | 33.27090 | 44.23744 | 139 ft | 20 kts | 150° |
| 2026-05-05 06:45 | 33.26960 | 44.23833 | 139 ft | 23 kts | 150° |
| 2026-05-05 06:45 | 33.26814 | 44.23934 | 139 ft | 25 kts | 150° |
| 2026-05-05 06:45 | 33.26670 | 44.24032 | 139 ft | 23 kts | 150° |
| 2026-05-05 06:46 | 33.26533 | 44.24126 | 139 ft | 22 kts | 150° |
| 2026-05-05 06:46 | 33.26400 | 44.24217 | 139 ft | 22 kts | 150° |
| 2026-05-05 06:46 | 33.26271 | 44.24306 | 138 ft | 21 kts | 150° |
| 2026-05-05 06:46 | 33.26146 | 44.24392 | 139 ft | 20 kts | 150° |
| 2026-05-05 06:47 | 33.26024 | 44.24476 | 139 ft | 20 kts | 150° |
| 2026-05-05 06:47 | 33.25892 | 44.24566 | 139 ft | 23 kts | 150° |
| 2026-05-05 06:47 | 33.25752 | 44.24662 | 139 ft | 23 kts | 150° |
| 2026-05-05 06:47 | 33.25618 | 44.24754 | 139 ft | 22 kts | 150° |
| 2026-05-05 06:48 | 33.25486 | 44.24845 | 138 ft | 22 kts | 150° |
| 2026-05-05 06:48 | 33.25358 | 44.24933 | 138 ft | 21 kts | 150° |
| 2026-05-05 06:48 | 33.25244 | 44.25011 | 138 ft | 13 kts | 150° |
| 2026-05-05 06:48 | 33.25193 | 44.25064 | 138 ft | 9 kts | 107° |
| 2026-05-05 06:49 | 33.25213 | 44.25135 | 138 ft | 9 kts | 59° |
| 2026-05-05 06:49 | 33.25244 | 44.25199 | 137 ft | 9 kts | 59° |
| 2026-05-05 06:49 | 33.25274 | 44.25246 | 138 ft | 5 kts | 17° |
| 2026-05-05 06:49 | 33.25298 | 44.25234 | 137 ft | 4 kts | 330° |
| 2026-05-05 06:50 | 33.25352 | 44.25198 | 137 ft | 26 kts | 330° |
| 2026-05-05 06:50 | 33.25729 | 44.24937 | 139 ft | 97 kts | 330° |
| 2026-05-05 06:50 | 33.26486 | 44.24417 | 148 ft | 151 kts | 328° |
| 2026-05-05 06:50 | 33.27452 | 44.23770 | 651 ft | 161 kts | 330° |
| 2026-05-05 06:51 | 33.28438 | 44.23136 | 1407 ft | 161 kts | 330° |
| 2026-05-05 06:51 | 33.29435 | 44.22500 | 2126 ft | 164 kts | 331° |
| 2026-05-05 06:51 | 33.30484 | 44.21802 | 2679 ft | 184 kts | 332° |
| 2026-05-05 06:51 | 33.31658 | 44.20993 | 2982 ft | 212 kts | 332° |
| 2026-05-05 06:52 | 33.33046 | 44.20034 | 3221 ft | 244 kts | 331° |
| 2026-05-05 06:52 | 33.34559 | 44.18999 | 3910 ft | 254 kts | 329° |
| 2026-05-05 06:52 | 33.36155 | 44.18043 | 4697 ft | 264 kts | 337° |
| 2026-05-05 06:52 | 33.38037 | 44.17700 | 5303 ft | 281 kts | 356° |
| 2026-05-05 06:53 | 33.40007 | 44.17704 | 6189 ft | 287 kts | 359° |
| 2026-05-05 06:53 | 33.42047 | 44.17706 | 6910 ft | 296 kts | 358° |
| 2026-05-05 06:53 | 33.44126 | 44.17691 | 7738 ft | 304 kts | 357° |
| 2026-05-05 06:53 | 33.46258 | 44.17657 | 8646 ft | 308 kts | 355° |
| 2026-05-05 06:54 | 33.48425 | 44.17607 | 9558 ft | 315 kts | 355° |
| 2026-05-05 06:54 | 33.50642 | 44.17543 | 10364 ft | 324 kts | 354° |
| 2026-05-05 06:54 | 33.52984 | 44.17464 | 10683 ft | 351 kts | 354° |
| 2026-05-05 06:54 | 33.55490 | 44.17373 | 11213 ft | 366 kts | 354° |
| 2026-05-05 06:55 | 33.58060 | 44.17282 | 12051 ft | 371 kts | 354° |
| 2026-05-05 06:55 | 33.60654 | 44.17192 | 12971 ft | 375 kts | 354° |
| 2026-05-05 06:55 | 33.63274 | 44.17097 | 13853 ft | 380 kts | 353° |
| 2026-05-05 06:55 | 33.65937 | 44.16999 | 14633 ft | 385 kts | 353° |
| 2026-05-05 06:56 | 33.68642 | 44.16897 | 15441 ft | 392 kts | 353° |
| 2026-05-05 06:56 | 33.71383 | 44.16793 | 16240 ft | 397 kts | 353° |
| 2026-05-05 06:56 | 33.74173 | 44.16687 | 17040 ft | 403 kts | 352° |
| 2026-05-05 06:56 | 33.77001 | 44.16579 | 17816 ft | 409 kts | 352° |
| 2026-05-05 06:57 | 33.79872 | 44.16470 | 18541 ft | 416 kts | 352° |
| 2026-05-05 06:57 | 33.82781 | 44.16360 | 19255 ft | 420 kts | 352° |
| 2026-05-05 06:57 | 33.85722 | 44.16249 | 19968 ft | 425 kts | 352° |
| 2026-05-05 06:57 | 33.88696 | 44.16136 | 20674 ft | 429 kts | 352° |
| 2026-05-05 06:58 | 33.91698 | 44.16023 | 21372 ft | 434 kts | 352° |
| 2026-05-05 06:58 | 33.94734 | 44.15907 | 21786 ft | 438 kts | 352° |
| 2026-05-05 06:58 | 33.97746 | 44.15794 | 21908 ft | 440 kts | 352° |
| 2026-05-05 06:58 | 34.00808 | 44.15679 | 21923 ft | 439 kts | 352° |
| 2026-05-05 06:59 | 34.03861 | 44.15565 | 21924 ft | 444 kts | 352° |
| 2026-05-05 06:59 | 34.07007 | 44.15439 | 21921 ft | 460 kts | 352° |
| 2026-05-05 06:59 | 34.10240 | 44.15241 | 21926 ft | 471 kts | 349° |
| 2026-05-05 06:59 | 34.13522 | 44.14905 | 21913 ft | 473 kts | 348° |
| 2026-05-05 07:00 | 34.16791 | 44.14516 | 21902 ft | 469 kts | 348° |
| 2026-05-05 07:00 | 34.20027 | 44.14115 | 21925 ft | 467 kts | 348° |
| 2026-05-05 07:00 | 34.23256 | 44.13719 | 21913 ft | 465 kts | 348° |
| 2026-05-05 07:00 | 34.26479 | 44.13334 | 21910 ft | 465 kts | 348° |
| 2026-05-05 07:01 | 34.29699 | 44.12959 | 21909 ft | 466 kts | 348° |
| 2026-05-05 07:01 | 34.32924 | 44.12590 | 21910 ft | 466 kts | 348° |
| 2026-05-05 07:01 | 34.36161 | 44.12225 | 21907 ft | 467 kts | 348° |
| 2026-05-05 07:01 | 34.39405 | 44.11861 | 21915 ft | 468 kts | 348° |
| 2026-05-05 07:02 | 34.42647 | 44.11498 | 21913 ft | 469 kts | 348° |
| 2026-05-05 07:02 | 34.45909 | 44.11134 | 21908 ft | 469 kts | 348° |
| 2026-05-05 07:02 | 34.49163 | 44.10769 | 21908 ft | 470 kts | 348° |
| 2026-05-05 07:02 | 34.52416 | 44.10405 | 21910 ft | 470 kts | 348° |
| 2026-05-05 07:03 | 34.55673 | 44.10039 | 21904 ft | 470 kts | 348° |
| 2026-05-05 07:03 | 34.58927 | 44.09674 | 21923 ft | 470 kts | 348° |
| 2026-05-05 07:03 | 34.62139 | 44.09312 | 21916 ft | 470 kts | 348° |
| 2026-05-05 07:03 | 34.65398 | 44.08945 | 21910 ft | 469 kts | 348° |
| 2026-05-05 07:04 | 34.68646 | 44.08579 | 21908 ft | 469 kts | 348° |
| 2026-05-05 07:04 | 34.71898 | 44.08212 | 21906 ft | 469 kts | 348° |
| 2026-05-05 07:04 | 34.75145 | 44.07845 | 21904 ft | 469 kts | 348° |
| 2026-05-05 07:04 | 34.78392 | 44.07478 | 21921 ft | 468 kts | 348° |
| 2026-05-05 07:05 | 34.81637 | 44.07111 | 21919 ft | 468 kts | 348° |
| 2026-05-05 07:05 | 34.84880 | 44.06743 | 21911 ft | 469 kts | 348° |
| 2026-05-05 07:05 | 34.88125 | 44.06375 | 21912 ft | 468 kts | 348° |
| 2026-05-05 07:05 | 34.91364 | 44.06008 | 21863 ft | 465 kts | 348° |
| 2026-05-05 07:06 | 34.94549 | 44.05652 | 21575 ft | 453 kts | 348° |
| 2026-05-05 07:06 | 34.97631 | 44.05310 | 21331 ft | 437 kts | 348° |
| 2026-05-05 07:06 | 35.00611 | 44.04978 | 21065 ft | 424 kts | 348° |
| 2026-05-05 07:06 | 35.03522 | 44.04650 | 20814 ft | 417 kts | 348° |
| 2026-05-05 07:07 | 35.06396 | 44.04320 | 20564 ft | 414 kts | 348° |
| 2026-05-05 07:07 | 35.09259 | 44.03988 | 20322 ft | 412 kts | 348° |
| 2026-05-05 07:07 | 35.12112 | 44.03658 | 20081 ft | 411 kts | 348° |
| 2026-05-05 07:07 | 35.14961 | 44.03329 | 19843 ft | 411 kts | 348° |
| 2026-05-05 07:08 | 35.17805 | 44.03001 | 19443 ft | 412 kts | 348° |
| 2026-05-05 07:08 | 35.20613 | 44.02678 | 18942 ft | 409 kts | 348° |
| 2026-05-05 07:08 | 35.23435 | 44.02356 | 18413 ft | 406 kts | 348° |
| 2026-05-05 07:08 | 35.26248 | 44.02035 | 17810 ft | 405 kts | 348° |
| 2026-05-05 07:09 | 35.29045 | 44.01716 | 17231 ft | 402 kts | 348° |
| 2026-05-05 07:09 | 35.31818 | 44.01399 | 16670 ft | 399 kts | 348° |
| 2026-05-05 07:09 | 35.34569 | 44.01084 | 16129 ft | 395 kts | 348° |
| 2026-05-05 07:09 | 35.37295 | 44.00772 | 15645 ft | 391 kts | 348° |
| 2026-05-05 07:10 | 35.39993 | 44.00463 | 15140 ft | 388 kts | 348° |
| 2026-05-05 07:10 | 35.42677 | 44.00155 | 14621 ft | 386 kts | 348° |
| 2026-05-05 07:10 | 35.45346 | 43.99846 | 14082 ft | 385 kts | 348° |
| 2026-05-05 07:10 | 35.48000 | 43.99540 | 13544 ft | 382 kts | 348° |
| 2026-05-05 07:11 | 35.50638 | 43.99236 | 12955 ft | 380 kts | 349° |
| 2026-05-05 07:11 | 35.53260 | 43.98934 | 12403 ft | 377 kts | 349° |
| 2026-05-05 07:11 | 35.55858 | 43.98635 | 11861 ft | 373 kts | 349° |
| 2026-05-05 07:11 | 35.58423 | 43.98339 | 11340 ft | 369 kts | 350° |
| 2026-05-05 07:12 | 35.60963 | 43.98046 | 10819 ft | 365 kts | 350° |
| 2026-05-05 07:12 | 35.63474 | 43.97756 | 10396 ft | 359 kts | 350° |
| 2026-05-05 07:12 | 35.65904 | 43.97478 | 10247 ft | 343 kts | 350° |
| 2026-05-05 07:12 | 35.68235 | 43.97211 | 10107 ft | 330 kts | 350° |
| 2026-05-05 07:13 | 35.70485 | 43.96952 | 9949 ft | 319 kts | 350° |
| 2026-05-05 07:13 | 35.72635 | 43.96705 | 9876 ft | 304 kts | 350° |
| 2026-05-05 07:13 | 35.74774 | 43.96453 | 9321 ft | 309 kts | 351° |
| 2026-05-05 07:13 | 35.76888 | 43.96205 | 9026 ft | 303 kts | 352° |
| 2026-05-05 07:14 | 35.78950 | 43.95964 | 8634 ft | 301 kts | 352° |
| 2026-05-05 07:14 | 35.81054 | 43.95718 | 8249 ft | 299 kts | 352° |
| 2026-05-05 07:14 | 35.83114 | 43.95478 | 7910 ft | 296 kts | 353° |
| 2026-05-05 07:14 | 35.85127 | 43.95244 | 7562 ft | 293 kts | 353° |
| 2026-05-05 07:15 | 35.87144 | 43.95009 | 7208 ft | 290 kts | 354° |
| 2026-05-05 07:15 | 35.89152 | 43.94776 | 6840 ft | 288 kts | 354° |
| 2026-05-05 07:15 | 35.91142 | 43.94544 | 6504 ft | 285 kts | 354° |
| 2026-05-05 07:15 | 35.93108 | 43.94315 | 6155 ft | 283 kts | 354° |
| 2026-05-05 07:16 | 35.95042 | 43.94090 | 5991 ft | 273 kts | 354° |
| 2026-05-05 07:16 | 35.96889 | 43.93875 | 5894 ft | 261 kts | 354° |
| 2026-05-05 07:16 | 35.98687 | 43.93780 | 5622 ft | 257 kts | 3° |
| 2026-05-05 07:16 | 36.00451 | 43.93972 | 5270 ft | 253 kts | 6° |
| 2026-05-05 07:17 | 36.02161 | 43.94189 | 5004 ft | 244 kts | 6° |
| 2026-05-05 07:17 | 36.03829 | 43.94394 | 4740 ft | 237 kts | 5° |
| 2026-05-05 07:17 | 36.05450 | 43.94513 | 4452 ft | 229 kts | 2° |
| 2026-05-05 07:17 | 36.07005 | 43.94542 | 4139 ft | 219 kts | 0° |
| 2026-05-05 07:18 | 36.08486 | 43.94551 | 3862 ft | 207 kts | 0° |
| 2026-05-05 07:18 | 36.09877 | 43.94560 | 3600 ft | 198 kts | 1° |
| 2026-05-05 07:18 | 36.11224 | 43.94569 | 3341 ft | 187 kts | 1° |
| 2026-05-05 07:18 | 36.12466 | 43.94579 | 3102 ft | 171 kts | 1° |
| 2026-05-05 07:19 | 36.13596 | 43.94588 | 2906 ft | 154 kts | 1° |
| 2026-05-05 07:19 | 36.14619 | 43.94596 | 2707 ft | 140 kts | 0° |
| 2026-05-05 07:19 | 36.15573 | 43.94603 | 2526 ft | 133 kts | 1° |
| 2026-05-05 07:19 | 36.16511 | 43.94611 | 2350 ft | 137 kts | 0° |
| 2026-05-05 07:20 | 36.17474 | 43.94619 | 2166 ft | 139 kts | 0° |
| 2026-05-05 07:20 | 36.18445 | 43.94627 | 1975 ft | 140 kts | 359° |
| 2026-05-05 07:20 | 36.19415 | 43.94630 | 1790 ft | 140 kts | 360° |
| 2026-05-05 07:20 | 36.20389 | 43.94639 | 1619 ft | 140 kts | 360° |
| 2026-05-05 07:21 | 36.21357 | 43.94648 | 1418 ft | 137 kts | 359° |
| 2026-05-05 07:21 | 36.22287 | 43.94655 | 1320 ft | 127 kts | 359° |
| 2026-05-05 07:21 | 36.23076 | 43.94660 | 1319 ft | 101 kts | 0° |
| 2026-05-05 07:21 | 36.23683 | 43.94664 | 1322 ft | 73 kts | 0° |
| 2026-05-05 07:22 | 36.24089 | 43.94668 | 1324 ft | 44 kts | 1° |
| 2026-05-05 07:22 | 36.24328 | 43.94709 | 1323 ft | 25 kts | 19° |
| 2026-05-05 07:22 | 36.24443 | 43.94779 | 1322 ft | 14 kts | 31° |
| 2026-05-05 07:22 | 36.24480 | 43.94850 | 1322 ft | 10 kts | 96° |
| 2026-05-05 07:23 | 36.24432 | 43.94894 | 1322 ft | 9 kts | 180° |
| 2026-05-05 07:23 | 36.24366 | 43.94892 | 1325 ft | 10 kts | 181° |
| 2026-05-05 07:23 | 36.24287 | 43.94891 | 1323 ft | 13 kts | 180° |
| 2026-05-05 07:23 | 36.24191 | 43.94891 | 1323 ft | 15 kts | 180° |
| 2026-05-05 07:24 | 36.24080 | 43.94889 | 1322 ft | 16 kts | 180° |
| 2026-05-05 07:24 | 36.23968 | 43.94889 | 1322 ft | 16 kts | 180° |
| 2026-05-05 07:24 | 36.23860 | 43.94887 | 1322 ft | 15 kts | 180° |
| 2026-05-05 07:24 | 36.23757 | 43.94886 | 1322 ft | 15 kts | 180° |
| 2026-05-05 07:25 | 36.23672 | 43.94890 | 1321 ft | 10 kts | 163° |
| 2026-05-05 07:25 | 36.23639 | 43.94954 | 1321 ft | 9 kts | 94° |
| 2026-05-05 07:25 | 36.23638 | 43.95033 | 1321 ft | 9 kts | 90° |
| 2026-05-05 07:25 | 36.23638 | 43.95111 | 1321 ft | 9 kts | 90° |
| 2026-05-05 07:26 | 36.23634 | 43.95185 | 1321 ft | 9 kts | 107° |
| 2026-05-05 07:26 | 36.23588 | 43.95224 | 1321 ft | 8 kts | 174° |
| 2026-05-05 07:26 | 36.23531 | 43.95226 | 1321 ft | 8 kts | 179° |
| 2026-05-05 07:26 | 36.23477 | 43.95238 | 1321 ft | 8 kts | 146° |
| 2026-05-05 07:27 | 36.23458 | 43.95295 | 1321 ft | 7 kts | 92° |
| 2026-05-05 07:27 | 36.23458 | 43.95347 | 1321 ft | 4 kts | 90° |
| 2026-05-05 07:27 | 36.23458 | 43.95364 | 1321 ft | 0 kts | 89° |